Molt, Montana
Current Conditions -  °F | °C
As of 9:53 PM on Tuesday 25 Nov 2014 (Local Time) from KBIL Reporting Station
Overcast Overcast  
Wind Chill: 26°   Ceiling: 5000
Heat Index: 35°   Visibility: 10mi
Dew Point: 16°   Wind: 13mph
Humidity: 46%   Direction: 310°NW
Pressure: 30.15"   Gusts: NA
Location:  45.86°N, 108.93°W
Report Text: KBIL 260453Z 31011KT 10SM OVC050 02/M09 A3015 RMK AO2 SLP230 T00171089 $
Loading
Personal Weather Stations






























Interactive Weather Map New forecast layout! Learn more

10-Day Weather Forecast

Advertisements
Track Severe Weather on mobile